Time;durP1;ratioP1;P1;durP2;ratioP2;P2;SDS_P1;SDS_P2;PMS_P1;PMS_P2;Temp;Humidity;BMP_temperature;BMP_pressure;BME280_temperature;BME280_humidity;BME280_pressure;Samples;Min_cycle;Max_cycle;Signal;HPM_P1;HPM_P2
2022/08/08 00:01:57;;;;;;;10.63;9.68;;;;;;;14.92;100.00;102405.91;5227482;28;20029;-62
2022/08/08 00:04:50;;;;;;;10.55;9.65;;;;;;;14.90;100.00;102400.72;5227265;28;20087;-62
2022/08/08 00:07:33;;;;;;;10.13;9.38;;;;;;;14.88;100.00;102404.75;5227263;28;20037;-63
2022/08/08 00:10:08;;;;;;;10.25;9.45;;;;;;;14.86;100.00;102407.72;5225952;28;20032;-63
2022/08/08 00:13:00;;;;;;;13.10;10.75;;;;;;;14.82;100.00;102401.13;5226146;28;20036;-62
2022/08/08 00:15:36;;;;;;;9.40;8.57;;;;;;;14.76;100.00;102402.91;5225477;28;20029;-60
2022/08/08 00:18:27;;;;;;;10.00;9.20;;;;;;;14.74;100.00;102399.63;5226549;28;20079;-65
2022/08/08 00:21:00;;;;;;;14.02;12.23;;;;;;;14.73;100.00;102410.75;5224515;28;20021;-63
2022/08/08 00:23:40;;;;;;;12.70;11.48;;;;;;;14.70;100.00;102395.78;5224635;28;20029;-63
2022/08/08 00:26:16;;;;;;;11.13;10.23;;;;;;;14.63;100.00;102405.97;5225771;28;20056;-63
2022/08/08 00:28:51;;;;;;;10.80;10.00;;;;;;;14.62;100.00;102406.22;5225747;28;20127;-63
2022/08/08 00:31:28;;;;;;;11.93;10.73;;;;;;;14.54;100.00;102412.88;5225601;28;20016;-63
2022/08/08 00:37:09;;;;;;;10.10;9.27;;;;;;;14.33;100.00;102389.09;5225456;28;20412;-61
2022/08/08 00:39:50;;;;;;;10.38;9.40;;;;;;;14.46;100.00;102418.69;5225164;28;20472;-60
2022/08/08 00:42:29;;;;;;;13.02;11.25;;;;;;;14.41;100.00;102405.03;5225556;28;20029;-61
2022/08/08 00:45:23;;;;;;;12.27;11.18;;;;;;;14.38;100.00;102408.22;5225268;28;20031;-61
2022/08/08 00:48:25;;;;;;;13.52;12.40;;;;;;;14.34;100.00;102415.19;5222086;28;20052;-63
2022/08/08 00:51:11;;;;;;;17.17;10.75;;;;;;;14.29;100.00;102410.47;5224994;28;20115;-62
2022/08/08 00:54:19;;;;;;;11.85;10.80;;;;;;;14.26;100.00;102408.25;5224892;28;20457;-62
2022/08/08 00:57:04;;;;;;;11.30;10.50;;;;;;;14.22;100.00;102396.22;5225543;28;20021;-62
2022/08/08 00:59:49;;;;;;;12.63;11.63;;;;;;;14.19;100.00;102392.09;5225688;28;20518;-63
2022/08/08 01:03:02;;;;;;;12.15;11.02;;;;;;;14.13;100.00;102395.78;5225790;28;20128;-63
2022/08/08 01:05:51;;;;;;;14.02;12.57;;;;;;;14.10;100.00;102395.44;5221596;28;20486;-63
2022/08/08 01:08:43;;;;;;;15.30;14.10;;;;;;;14.08;100.00;102392.97;5224610;28;20021;-59
2022/08/08 01:11:41;;;;;;;10.88;9.98;;;;;;;14.03;100.00;102397.47;5225205;28;20044;-60
2022/08/08 01:14:39;;;;;;;16.08;13.52;;;;;;;13.99;100.00;102399.84;5225193;28;20115;-63
2022/08/08 01:17:18;;;;;;;15.40;13.98;;;;;;;13.94;100.00;102394.31;5225462;28;20040;-63
2022/08/08 01:20:09;;;;;;;13.55;12.52;;;;;;;13.92;100.00;102396.44;5225074;28;20442;-63
2022/08/08 01:23:04;;;;;;;14.68;13.27;;;;;;;13.92;100.00;102392.91;5225374;28;20025;-63
2022/08/08 01:26:04;;;;;;;15.18;13.70;;;;;;;13.92;100.00;102390.19;5223894;28;20504;-59
2022/08/08 01:29:07;;;;;;;14.57;13.38;;;;;;;13.92;100.00;102393.72;5218634;28;20029;-63
2022/08/08 01:32:17;;;;;;;17.13;15.45;;;;;;;13.87;100.00;102390.91;5225605;28;20036;-62
2022/08/08 01:35:09;;;;;;;17.77;15.98;;;;;;;13.84;100.00;102394.94;5225420;28;20027;-63
2022/08/08 01:38:16;;;;;;;15.02;13.93;;;;;;;13.83;100.00;102390.59;5225820;28;20024;-63
2022/08/08 01:41:22;;;;;;;18.48;13.48;;;;;;;13.84;100.00;102403.09;5225636;28;20452;-63
2022/08/08 01:44:16;;;;;;;17.45;15.13;;;;;;;13.74;100.00;102383.03;5220211;28;20111;-63
2022/08/08 01:47:08;;;;;;;15.60;14.23;;;;;;;13.81;100.00;102405.47;5223953;28;20075;-62
2022/08/08 01:49:52;;;;;;;16.38;13.27;;;;;;;13.78;100.00;102400.50;5225168;28;20162;-62
2022/08/08 01:52:44;;;;;;;14.15;12.90;;;;;;;13.75;100.00;102403.69;5225036;28;20381;-63
2022/08/08 01:55:14;;;;;;;15.45;14.13;;;;;;;13.72;100.00;102401.47;5225008;28;20056;-61
2022/08/08 01:58:13;;;;;;;16.02;14.77;;;;;;;13.67;100.00;102406.78;5225570;28;20109;-61
2022/08/08 02:01:25;;;;;;;16.25;15.00;;;;;;;13.63;100.00;102405.59;5222079;28;20055;-62
2022/08/08 02:04:29;;;;;;;17.20;15.68;;;;;;;13.60;100.00;102406.91;5224904;28;20049;-62
2022/08/08 02:07:15;;;;;;;23.60;15.60;;;;;;;13.46;100.00;102394.66;5223594;28;20040;-62
2022/08/08 02:09:48;;;;;;;14.25;13.13;;;;;;;13.52;100.00;102408.09;5225391;28;20039;-61
2022/08/08 02:12:35;;;;;;;17.33;15.90;;;;;;;13.51;100.00;102419.19;5225034;28;20029;-62
2022/08/08 02:15:19;;;;;;;14.98;13.70;;;;;;;13.47;100.00;102418.84;5224004;28;20020;-64
2022/08/08 02:17:58;;;;;;;16.13;14.90;;;;;;;13.46;100.00;102417.19;5224113;28;20068;-62
2022/08/08 02:20:41;;;;;;;17.23;15.65;;;;;;;13.45;100.00;102412.81;5224006;28;20518;-63
2022/08/08 02:23:24;;;;;;;16.73;15.25;;;;;;;13.45;100.00;102417.44;5223539;28;20020;-61
2022/08/08 02:26:07;;;;;;;18.27;13.93;;;;;;;13.44;100.00;102402.22;5223589;28;20111;-61
2022/08/08 02:28:43;;;;;;;15.48;14.18;;;;;;;13.40;100.00;102403.75;5222081;28;20369;-62
2022/08/08 02:31:41;;;;;;;19.42;17.67;;;;;;;13.17;100.00;102374.75;5223540;28;20139;-61
2022/08/08 02:34:53;;;;;;;20.15;18.23;;;;;;;13.32;100.00;102402.19;5222826;28;20036;-62
2022/08/08 02:37:49;;;;;;;24.15;15.82;;;;;;;13.31;100.00;102418.72;5223369;28;20514;-62
2022/08/08 02:40:25;;;;;;;17.02;15.40;;;;;;;13.27;100.00;102410.25;5224190;28;20073;-62
2022/08/08 02:43:34;;;;;;;14.85;13.57;;;;;;;13.24;100.00;102408.00;5227867;28;20131;-61
2022/08/08 02:46:31;;;;;;;14.40;13.13;;;;;;;13.26;100.00;102405.88;5226970;28;20045;-62
2022/08/08 02:52:08;;;;;;;17.05;15.32;;;;;;;13.24;100.00;102407.19;5233508;28;20045;-65
2022/08/08 02:54:38;;;;;;;16.52;14.90;;;;;;;13.26;100.00;102410.50;5228357;28;20021;-65
2022/08/08 02:57:43;;;;;;;15.80;14.50;;;;;;;13.25;100.00;102401.53;5228548;28;20465;-65
2022/08/08 03:00:58;;;;;;;15.95;14.63;;;;;;;13.27;100.00;102407.53;5228201;28;20052;-68
2022/08/08 03:03:53;;;;;;;15.38;14.32;;;;;;;13.26;100.00;102405.88;5208245;28;20432;-65
2022/08/08 03:06:38;;;;;;;18.48;16.88;;;;;;;13.27;100.00;102412.13;5227922;28;20050;-65
2022/08/08 03:09:14;;;;;;;16.45;14.77;;;;;;;13.25;100.00;102409.66;5228610;28;20053;-65
2022/08/08 03:12:06;;;;;;;18.25;16.80;;;;;;;13.23;100.00;102411.78;5228249;28;20078;-65
2022/08/08 03:14:44;;;;;;;19.95;17.90;;;;;;;13.18;100.00;102403.53;5228084;28;20060;-64
2022/08/08 03:17:25;;;;;;;22.52;16.92;;;;;;;13.01;100.00;102381.66;5228218;28;20064;-64
2022/08/08 03:20:09;;;;;;;18.50;15.73;;;;;;;13.12;100.00;102407.13;5210583;28;20468;-66
2022/08/08 03:22:45;;;;;;;17.20;15.57;;;;;;;12.97;100.00;102390.50;5210007;28;20100;-65
2022/08/08 03:25:19;;;;;;;16.98;15.60;;;;;;;13.07;100.00;102413.25;5227642;28;20025;-64
2022/08/08 03:27:55;;;;;;;20.65;18.85;;;;;;;13.04;100.00;102413.72;5227732;28;20440;-67
2022/08/08 03:30:26;;;;;;;20.85;18.95;;;;;;;13.00;100.00;102415.25;5227865;28;20115;-63
2022/08/08 03:35:49;;;;;;;20.02;18.25;;;;;;;12.97;100.00;102412.22;5227372;28;20130;-68
2022/08/08 03:38:21;;;;;;;23.85;19.98;;;;;;;12.94;100.00;102409.97;5227369;28;20029;-64
2022/08/08 03:40:53;;;;;;;21.10;19.17;;;;;;;12.93;100.00;102416.44;5209776;28;20048;-64
2022/08/08 03:43:24;;;;;;;20.40;18.35;;;;;;;12.91;100.00;102415.84;5227369;28;20033;-65
2022/08/08 03:45:54;;;;;;;21.35;19.73;;;;;;;12.92;100.00;102422.91;5227367;28;20052;-65
2022/08/08 03:48:24;;;;;;;19.42;17.73;;;;;;;12.90;100.00;102417.72;5227801;28;20025;-68
2022/08/08 03:50:55;;;;;;;20.20;18.63;;;;;;;12.87;100.00;102422.78;5226653;28;20040;-65
2022/08/08 03:53:26;;;;;;;18.63;16.77;;;;;;;12.84;100.00;102427.63;5227089;28;20092;-63
2022/08/08 03:55:56;;;;;;;19.88;17.98;;;;;;;12.78;100.00;102419.59;5210064;28;20531;-65
2022/08/08 03:58:27;;;;;;;19.02;17.42;;;;;;;12.81;100.00;102432.69;5209743;28;20029;-69
2022/08/08 04:00:57;;;;;;;18.58;17.10;;;;;;;12.81;100.00;102424.53;5227332;28;20024;-66
2022/08/08 04:03:34;;;;;;;20.83;19.25;;;;;;;12.81;100.00;102425.38;5209030;28;20483;-65
2022/08/08 04:06:06;;;;;;;19.70;17.95;;;;;;;12.83;100.00;102438.69;5227657;28;20477;-63
2022/08/08 04:08:37;;;;;;;18.25;16.48;;;;;;;12.83;100.00;102436.81;5227257;28;20071;-65
2022/08/08 04:11:08;;;;;;;18.42;16.90;;;;;;;12.73;100.00;102433.00;5226788;28;20431;-64
2022/08/08 04:13:38;;;;;;;18.58;16.95;;;;;;;12.79;100.00;102449.16;5226851;28;20074;-66
2022/08/08 04:16:09;;;;;;;18.73;16.90;;;;;;;12.81;100.00;102457.06;5209484;28;20033;-65
2022/08/08 04:18:39;;;;;;;26.00;19.15;;;;;;;12.81;100.00;102454.34;5227173;28;20852;-64
2022/08/08 04:21:10;;;;;;;23.60;19.67;;;;;;;12.79;100.00;102454.59;5227378;28;20064;-64
2022/08/08 04:23:40;;;;;;;21.27;19.08;;;;;;;12.83;100.00;102449.53;5208354;28;20401;-63
2022/08/08 04:26:11;;;;;;;19.05;17.35;;;;;;;12.79;100.00;102453.75;5227005;28;20079;-67
2022/08/08 04:28:41;;;;;;;20.77;18.73;;;;;;;12.82;100.00;102454.13;5226776;28;20025;-65
2022/08/08 04:31:12;;;;;;;20.63;19.00;;;;;;;12.84;100.00;102457.44;5226786;28;20024;-64
2022/08/08 04:33:42;;;;;;;20.50;18.67;;;;;;;12.87;100.00;102460.75;5208243;28;20087;-64
2022/08/08 04:36:13;;;;;;;19.08;17.50;;;;;;;12.85;100.00;102452.84;5226852;28;20033;-67
2022/08/08 04:38:43;;;;;;;20.67;18.58;;;;;;;12.90;100.00;102455.69;5226811;28;20547;-68
2022/08/08 04:41:14;;;;;;;24.08;19.92;;;;;;;12.92;100.00;102455.47;5226717;28;20068;-66
2022/08/08 04:43:45;;;;;;;19.73;18.15;;;;;;;13.03;100.00;102460.06;5226283;28;20021;-64
2022/08/08 04:46:15;;;;;;;18.08;16.55;;;;;;;13.06;100.00;102462.31;5227704;28;20108;-64
2022/08/08 04:48:46;;;;;;;18.00;16.23;;;;;;;13.16;100.00;102460.72;5227025;28;20021;-64
2022/08/08 04:51:16;;;;;;;19.45;17.80;;;;;;;13.21;100.00;102465.44;5209827;28;20036;-68
2022/08/08 04:53:46;;;;;;;18.77;17.13;;;;;;;13.16;100.00;102459.88;5227517;28;20023;-65
2022/08/08 04:56:17;;;;;;;18.90;17.17;;;;;;;13.26;100.00;102462.84;5227458;28;20465;-65
2022/08/08 04:58:47;;;;;;;17.60;15.82;;;;;;;13.33;100.00;102462.72;5226706;28;20025;-65
2022/08/08 05:01:18;;;;;;;18.10;16.58;;;;;;;13.37;100.00;102472.88;5225975;28;20029;-65
2022/08/08 05:03:48;;;;;;;19.20;17.55;;;;;;;13.36;100.00;102464.97;5223670;28;20021;-65
2022/08/08 05:06:18;;;;;;;17.10;15.77;;;;;;;13.45;100.00;102475.25;5227997;28;20028;-65
2022/08/08 05:08:49;;;;;;;18.88;17.33;;;;;;;13.45;100.00;102469.00;5224897;28;20038;-66
2022/08/08 05:11:21;;;;;;;18.67;16.83;;;;;;;13.50;100.00;102475.38;5245158;28;20089;-64
2022/08/08 05:13:52;;;;;;;17.55;15.55;;;;;;;13.56;100.00;102480.91;5246397;28;20492;-65
2022/08/08 05:16:23;;;;;;;18.10;16.67;;;;;;;13.61;100.00;102479.13;5246679;28;20103;-64
2022/08/08 05:18:55;;;;;;;18.45;17.05;;;;;;;13.68;100.00;102473.56;5245968;28;20059;-65
2022/08/08 05:21:25;;;;;;;17.80;16.42;;;;;;;13.75;100.00;102468.84;5245748;28;20107;-65
2022/08/08 05:23:56;;;;;;;16.52;14.80;;;;;;;13.86;100.00;102470.72;5244718;28;20448;-65
2022/08/08 05:26:27;;;;;;;18.73;15.45;;;;;;;13.94;100.00;102483.94;5246064;28;20488;-65
2022/08/08 05:28:57;;;;;;;17.40;15.90;;;;;;;14.01;100.00;102483.81;5245445;28;20025;-64
2022/08/08 05:31:29;;;;;;;15.50;14.23;;;;;;;14.04;100.00;102489.59;5245360;28;20028;-65
2022/08/08 05:34:03;;;;;;;15.25;14.18;;;;;;;14.05;100.00;102480.38;5226941;28;20391;-65
2022/08/08 05:36:36;;;;;;;17.20;15.80;;;;;;;14.11;100.00;102484.88;5245038;28;20476;-65
2022/08/08 05:39:08;;;;;;;17.33;15.80;;;;;;;14.18;100.00;102490.13;5227628;28;20020;-65
2022/08/08 05:41:41;;;;;;;16.77;14.80;;;;;;;14.22;100.00;102491.31;5245297;28;20032;-66
2022/08/08 05:44:12;;;;;;;17.35;15.77;;;;;;;14.30;100.00;102493.66;5244972;28;20031;-65
2022/08/08 05:46:43;;;;;;;17.00;15.63;;;;;;;14.36;100.00;102494.59;5241978;28;20040;-66
2022/08/08 05:49:15;;;;;;;15.48;14.27;;;;;;;14.40;100.00;102493.06;5245380;28;20504;-66
2022/08/08 05:51:47;;;;;;;15.90;14.68;;;;;;;14.46;100.00;102492.09;5245371;28;20070;-65
2022/08/08 05:54:18;;;;;;;15.50;13.57;;;;;;;14.52;100.00;102494.66;5244964;28;20035;-65
2022/08/08 05:56:51;;;;;;;13.68;12.30;;;;;;;14.59;100.00;102497.25;5245334;28;20020;-65
2022/08/08 05:59:23;;;;;;;16.85;15.63;;;;;;;14.66;100.00;102497.09;5244839;28;20035;-66
2022/08/08 06:01:55;;;;;;;15.40;14.05;;;;;;;14.72;100.00;102490.69;5231581;28;20044;-66
2022/08/08 06:04:27;;;;;;;18.38;13.98;;;;;;;14.77;100.00;102504.38;5223918;28;20735;-65
2022/08/08 06:06:59;;;;;;;16.48;13.43;;;;;;;14.70;100.00;102488.22;5224483;28;20036;-66
2022/08/08 06:09:33;;;;;;;14.70;13.50;;;;;;;14.88;100.00;102503.50;5206523;28;20481;-65
2022/08/08 06:12:05;;;;;;;14.65;13.43;;;;;;;14.97;100.00;102503.94;5207583;28;20483;-66
2022/08/08 06:14:35;;;;;;;16.20;14.80;;;;;;;15.01;100.00;102500.47;5224152;28;20477;-65
2022/08/08 06:17:06;;;;;;;13.98;12.60;;;;;;;15.10;100.00;102498.16;5224653;28;20025;-65
2022/08/08 06:19:39;;;;;;;14.40;12.25;;;;;;;15.16;100.00;102497.19;5224291;28;20017;-65
2022/08/08 06:22:09;;;;;;;14.85;12.95;;;;;;;15.24;100.00;102498.69;5224379;28;20048;-65
2022/08/08 06:24:40;;;;;;;14.15;12.85;;;;;;;15.35;100.00;102500.47;5223915;28;20017;-65
2022/08/08 06:27:11;;;;;;;13.95;11.77;;;;;;;15.36;100.00;102497.50;5206496;28;20025;-66
2022/08/08 06:30:00;;;;;;;14.10;12.73;;;;;;;15.51;100.00;102505.91;5206642;28;20025;-65
2022/08/08 06:32:30;;;;;;;12.43;11.48;;;;;;;15.62;100.00;102511.53;5224860;28;20028;-66
2022/08/08 06:35:04;;;;;;;13.18;12.05;;;;;;;15.70;100.00;102513.84;5223778;28;20033;-66
2022/08/08 06:37:37;;;;;;;13.77;12.68;;;;;;;15.81;100.00;102521.09;5202737;28;20029;-66
2022/08/08 06:40:13;;;;;;;10.50;9.75;;;;;;;15.86;100.00;102507.56;5224489;28;20029;-66
2022/08/08 06:42:52;;;;;;;12.80;11.75;;;;;;;15.90;100.00;102500.50;5224333;28;20029;-66
2022/08/08 06:45:23;;;;;;;14.02;12.63;;;;;;;16.04;100.00;102509.97;5223759;28;20473;-66
2022/08/08 06:47:53;;;;;;;12.70;11.80;;;;;;;16.25;100.00;102521.97;5224133;28;20036;-66
2022/08/08 06:50:24;;;;;;;13.30;12.00;;;;;;;16.32;100.00;102524.50;5224081;28;20124;-65
2022/08/08 06:52:55;;;;;;;12.90;11.60;;;;;;;16.42;100.00;102525.47;5224236;28;20060;-67
2022/08/08 06:55:25;;;;;;;11.07;10.18;;;;;;;16.57;100.00;102524.78;5205359;28;20056;-66
2022/08/08 06:57:56;;;;;;;10.95;9.63;;;;;;;16.77;100.00;102525.03;5224040;28;20036;-67
2022/08/08 07:00:33;;;;;;;9.18;8.43;;;;;;;17.03;100.00;102522.59;5223563;28;20523;-65
2022/08/08 07:03:10;;;;;;;10.45;9.52;;;;;;;17.24;100.00;102518.94;5223769;28;20025;-66
2022/08/08 07:05:45;;;;;;;9.23;8.57;;;;;;;17.40;100.00;102533.53;5223132;28;20420;-65
2022/08/08 07:08:19;;;;;;;10.25;9.43;;;;;;;17.42;100.00;102521.25;5223774;28;20408;-65
2022/08/08 07:10:55;;;;;;;9.13;8.20;;;;;;;17.63;100.00;102529.59;5223826;28;20029;-65
2022/08/08 07:13:36;;;;;;;8.95;8.35;;;;;;;17.79;100.00;102531.41;5223191;28;20021;-66
2022/08/08 07:16:12;;;;;;;8.45;7.75;;;;;;;17.95;100.00;102533.13;5223543;28;20473;-65
2022/08/08 07:19:15;;;;;;;7.95;7.35;;;;;;;18.21;100.00;102536.81;5223433;28;20029;-65
2022/08/08 07:22:03;;;;;;;6.63;6.20;;;;;;;18.55;100.00;102543.50;5223718;28;20024;-65
2022/08/08 07:24:47;;;;;;;8.68;5.80;;;;;;;18.74;100.00;102537.59;5222901;28;20550;-65
2022/08/08 07:27:22;;;;;;;6.78;5.40;;;;;;;19.01;100.00;102538.19;5225690;28;20017;-65
2022/08/08 07:29:52;;;;;;;8.40;5.15;;;;;;;19.13;100.00;102546.94;5225789;28;20029;-65
2022/08/08 07:32:24;;;;;;;6.07;5.68;;;;;;;19.31;100.00;102536.56;5227396;28;20019;-65
2022/08/08 07:34:56;;;;;;;7.20;5.40;;;;;;;19.55;100.00;102543.16;5226356;28;20028;-67
2022/08/08 07:37:27;;;;;;;5.03;4.63;;;;;;;19.81;100.00;102546.69;5236680;28;20028;-65
2022/08/08 07:39:59;;;;;;;6.45;5.97;;;;;;;19.96;100.00;102543.91;5226913;28;20388;-66
2022/08/08 07:42:31;;;;;;;6.90;5.07;;;;;;;20.06;100.00;102546.63;5226809;28;20025;-66
2022/08/08 07:45:02;;;;;;;4.65;4.45;;;;;;;20.13;100.00;102555.38;5226349;28;20520;-66
2022/08/08 07:47:33;;;;;;;4.22;4.00;;;;;;;20.05;100.00;102542.22;5226061;28;20025;-66
2022/08/08 07:50:04;;;;;;;5.38;4.97;;;;;;;20.19;100.00;102550.72;5226710;28;20397;-65
2022/08/08 07:52:34;;;;;;;5.00;4.65;;;;;;;20.24;100.00;102562.47;5226457;28;20056;-66
2022/08/08 07:55:27;;;;;;;4.72;4.43;;;;;;;20.47;100.00;102560.22;5226259;28;20393;-65
2022/08/08 07:58:22;;;;;;;4.88;4.47;;;;;;;20.52;100.00;102552.75;5225793;28;20021;-63
2022/08/08 08:01:02;;;;;;;4.20;4.00;;;;;;;20.51;100.00;102561.28;5226463;28;20021;-65
2022/08/08 08:03:40;;;;;;;;;;;;;;;20.51;100.00;102562.09;5226084;28;20032;-66
2022/08/08 08:06:13;;;;;;;3.88;3.67;;;;;;;20.50;100.00;102570.66;5226311;28;19958;-66
2022/08/08 08:08:59;;;;;;;7.50;3.38;;;;;;;20.53;100.00;102568.13;5208364;28;20025;-65
2022/08/08 08:11:33;;;;;;;5.28;4.10;;;;;;;20.70;100.00;102564.22;5226799;28;20480;-65
2022/08/08 08:14:07;;;;;;;4.05;3.80;;;;;;;20.83;100.00;102569.91;5208661;28;20500;-65
2022/08/08 08:16:39;;;;;;;11.48;5.97;;;;;;;20.84;100.00;102573.47;5226434;28;20043;-66
2022/08/08 08:19:11;;;;;;;4.90;4.50;;;;;;;20.92;100.00;102577.53;5222917;28;20021;-67
2022/08/08 08:21:47;;;;;;;5.90;4.38;;;;;;;21.07;100.00;102578.28;5225388;28;20067;-66
2022/08/08 08:24:17;;;;;;;4.15;3.53;;;;;;;21.25;100.00;102571.31;5207808;28;20033;-67
2022/08/08 08:26:48;;;;;;;3.35;3.15;;;;;;;21.54;100.00;102569.41;5226309;28;20061;-66
2022/08/08 08:29:18;;;;;;;5.28;3.47;;;;;;;21.62;100.00;102580.91;5225927;28;20530;-66
2022/08/08 08:31:49;;;;;;;3.72;3.53;;;;;;;21.69;100.00;102575.88;5208358;28;20024;-65
2022/08/08 08:34:19;;;;;;;4.60;4.00;;;;;;;21.73;100.00;102585.19;5225628;28;20072;-66
2022/08/08 08:36:50;;;;;;;4.70;4.28;;;;;;;21.86;100.00;102568.84;5225868;28;20025;-66
2022/08/08 08:39:20;;;;;;;6.95;5.13;;;;;;;21.88;100.00;102566.63;5207286;28;20032;-67
2022/08/08 08:41:52;;;;;;;4.55;3.88;;;;;;;21.96;100.00;102572.56;5207952;28;20025;-67
2022/08/08 08:44:24;;;;;;;4.45;4.07;;;;;;;22.03;100.00;102573.09;5225223;28;20670;-68
2022/08/08 08:46:56;;;;;;;4.90;4.57;;;;;;;21.98;100.00;102578.59;5225627;28;20108;-68
2022/08/08 08:49:26;;;;;;;4.97;4.65;;;;;;;21.92;100.00;102580.63;5258662;22;20047;-60
2022/08/08 08:52:01;;;;;;;3.75;3.55;;;;;;;21.94;100.00;102575.66;5240413;28;20095;-60
2022/08/08 08:54:34;;;;;;;4.97;4.22;;;;;;;21.93;100.00;102576.75;5272044;28;20366;-60
2022/08/08 08:57:08;;;;;;;5.95;4.20;;;;;;;21.89;100.00;102545.44;5260949;28;20634;-59
2022/08/08 08:59:41;;;;;;;4.90;3.60;;;;;;;22.11;100.00;102576.03;5235835;28;20028;-64
2022/08/08 09:02:18;;;;;;;3.13;2.92;;;;;;;22.35;100.00;102573.25;5253655;28;20036;-60
2022/08/08 09:04:54;;;;;;;4.82;4.32;;;;;;;22.52;100.00;102584.59;5271596;28;20434;-60
2022/08/08 09:07:28;;;;;;;4.38;4.10;;;;;;;22.55;100.00;102564.72;5253174;28;20037;-60
2022/08/08 09:09:59;;;;;;;4.07;3.83;;;;;;;22.66;100.00;102573.69;5252184;28;20024;-61
2022/08/08 09:12:32;;;;;;;2.45;2.35;;;;;;;22.85;100.00;102577.31;5271553;28;20012;-62
2022/08/08 09:15:03;;;;;;;2.65;2.50;;;;;;;22.89;96.81;102578.34;5252788;28;20103;-61
2022/08/08 09:17:35;;;;;;;15.93;3.47;;;;;;;22.76;97.15;102578.25;5270509;28;20052;-60
2022/08/08 09:20:07;;;;;;;3.03;2.90;;;;;;;22.87;97.00;102583.34;5252711;28;20088;-60
2022/08/08 09:22:37;;;;;;;4.85;2.60;;;;;;;22.70;95.58;102573.91;5271020;28;20020;-60
2022/08/08 09:25:08;;;;;;;1.77;1.75;;;;;;;22.54;95.61;102576.03;5271198;28;20024;-60
2022/08/08 09:27:39;;;;;;;3.08;2.92;;;;;;;22.68;91.19;102578.91;5270539;28;20391;-60
2022/08/08 09:30:15;;;;;;;2.80;2.60;;;;;;;22.76;91.64;102579.06;5252783;28;20023;-60
2022/08/08 09:32:51;;;;;;;6.35;4.70;;;;;;;22.87;94.80;102574.25;5253520;28;20055;-60
2022/08/08 09:35:27;;;;;;;2.58;2.22;;;;;;;22.88;98.21;102571.19;5270883;28;20580;-61
2022/08/08 09:38:03;;;;;;;4.43;2.28;;;;;;;22.93;98.62;102570.31;5270084;28;20051;-59
2022/08/08 09:40:35;;;;;;;3.53;2.70;;;;;;;23.11;98.59;102569.47;5270777;28;20103;-60
2022/08/08 09:43:12;;;;;;;6.45;3.10;;;;;;;23.22;95.91;102570.97;5252134;28;20032;-60
2022/08/08 09:45:55;;;;;;;3.35;2.97;;;;;;;23.23;95.46;102571.78;5270886;28;20028;-60
2022/08/08 09:48:33;;;;;;;4.85;3.78;;;;;;;23.14;97.46;102543.25;5270245;28;20020;-63
2022/08/08 09:51:04;;;;;;;3.83;2.55;;;;;;;23.42;97.34;102567.03;5251986;28;20035;-60
2022/08/08 09:53:51;;;;;;;3.08;2.75;;;;;;;23.38;95.73;102556.94;5267666;28;20524;-60
2022/08/08 09:56:22;;;;;;;3.40;2.60;;;;;;;23.64;96.32;102560.09;5270554;28;20034;-59
2022/08/08 09:59:03;;;;;;;2.65;2.55;;;;;;;23.82;92.79;102570.25;5269314;28;20032;-59
2022/08/08 10:01:37;;;;;;;2.60;2.50;;;;;;;23.60;89.26;102561.81;5251588;28;20107;-60
2022/08/08 10:04:14;;;;;;;3.65;3.42;;;;;;;23.39;90.38;102553.84;5251214;28;20111;-59
2022/08/08 10:06:46;;;;;;;2.38;2.17;;;;;;;23.70;90.80;102558.88;5269560;28;20020;-60
2022/08/08 10:09:37;;;;;;;1.73;1.70;;;;;;;23.79;86.34;102529.47;5269939;28;20492;-60
2022/08/08 10:12:08;;;;;;;2.50;2.40;;;;;;;23.77;86.96;102565.63;5249122;28;20020;-60
2022/08/08 10:14:39;;;;;;;3.28;2.58;;;;;;;23.73;86.71;102559.06;5231072;28;20066;-60
2022/08/08 10:17:10;;;;;;;2.55;2.45;;;;;;;23.75;88.12;102564.28;5249665;28;20465;-60
2022/08/08 10:19:41;;;;;;;2.67;2.58;;;;;;;23.63;87.16;102563.97;5248066;28;20020;-59
2022/08/08 10:22:16;;;;;;;2.80;2.08;;;;;;;23.85;87.53;102556.66;5249573;28;20029;-60
2022/08/08 10:24:48;;;;;;;5.28;3.60;;;;;;;24.14;85.97;102550.84;5248805;28;20355;-60
2022/08/08 10:27:27;;;;;;;2.90;2.15;;;;;;;24.21;84.00;102548.50;5249169;28;20024;-61
2022/08/08 10:30:04;;;;;;;3.33;2.17;;;;;;;24.25;83.67;102545.16;5248354;28;20044;-60
2022/08/08 10:32:40;;;;;;;2.22;2.13;;;;;;;24.33;81.07;102528.66;5248402;28;20042;-59
2022/08/08 10:35:13;;;;;;;2.17;1.70;;;;;;;24.67;80.98;102527.38;5248691;28;20048;-60
2022/08/08 10:38:03;;;;;;;3.35;2.67;;;;;;;24.85;79.33;102541.03;5230593;28;20046;-60
2022/08/08 10:40:37;;;;;;;2.30;2.10;;;;;;;24.76;79.56;102542.91;5248337;28;20032;-62
2022/08/08 10:43:07;;;;;;;2.80;2.53;;;;;;;24.61;80.95;102532.19;5248796;28;20395;-60
2022/08/08 10:45:45;;;;;;;4.20;2.53;;;;;;;24.81;80.21;102541.97;5249159;28;20028;-61
2022/08/08 10:48:16;;;;;;;3.55;3.25;;;;;;;24.99;78.56;102540.19;5248310;28;20032;-61
2022/08/08 10:50:46;;;;;;;3.63;2.05;;;;;;;25.02;79.65;102534.88;5247636;28;20036;-62
2022/08/08 10:53:18;;;;;;;2.80;2.47;;;;;;;24.99;77.04;102535.50;5244840;28;20101;-59
2022/08/08 10:55:56;;;;;;;2.33;2.22;;;;;;;24.80;78.49;102541.16;5247313;28;20531;-60
2022/08/08 10:58:27;;;;;;;3.85;1.77;;;;;;;25.16;80.04;102529.25;5229507;28;20029;-58
2022/08/08 11:01:06;;;;;;;3.22;2.92;;;;;;;25.43;76.29;102525.53;5247010;28;20104;-59
2022/08/08 11:03:41;;;;;;;2.57;2.03;;;;;;;25.28;74.48;102525.94;5249783;28;20020;-60
2022/08/08 11:06:14;;;;;;;2.22;2.03;;;;;;;25.52;73.99;102521.69;5250855;28;20446;-60
2022/08/08 11:08:45;;;;;;;8.77;3.38;;;;;;;25.48;74.40;102517.91;5257071;28;20417;-61
2022/08/08 11:11:15;;;;;;;2.47;2.38;;;;;;;25.86;75.83;102523.84;5251946;28;20119;-60
2022/08/08 11:13:45;;;;;;;2.20;2.08;;;;;;;26.37;73.96;102518.81;5270450;28;20012;-60
2022/08/08 11:16:22;;;;;;;4.43;2.40;;;;;;;26.35;71.87;102526.63;5271413;28;20031;-60
2022/08/08 11:18:54;;;;;;;5.30;3.42;;;;;;;25.62;73.06;102533.63;5271419;28;20020;-61
2022/08/08 11:21:27;;;;;;;2.20;2.13;;;;;;;25.40;75.04;102537.25;5270468;28;20043;-60
2022/08/08 11:24:03;;;;;;;3.45;1.63;;;;;;;25.45;73.22;102501.97;5270556;28;20056;-60
2022/08/08 11:26:35;;;;;;;2.45;2.25;;;;;;;26.20;72.65;102531.44;5271346;28;20085;-60
2022/08/08 11:29:07;;;;;;;3.80;2.05;;;;;;;26.06;72.81;102532.69;5271089;28;20387;-59
2022/08/08 11:31:40;;;;;;;1.90;1.63;;;;;;;26.29;71.61;102523.13;5270767;28;20024;-60
2022/08/08 11:34:11;;;;;;;3.55;3.25;;;;;;;26.22;71.65;102531.13;5270166;28;20484;-60
2022/08/08 11:36:42;;;;;;;1.70;1.70;;;;;;;26.28;71.01;102524.28;5273869;28;20299;-61
2022/08/08 11:39:16;;;;;;;2.53;2.42;;;;;;;26.14;70.86;102496.72;5258613;28;20073;-60
2022/08/08 11:41:49;;;;;;;1.48;1.35;;;;;;;26.23;70.19;102514.19;5274311;28;20035;-60
2022/08/08 11:44:21;;;;;;;1.52;1.50;;;;;;;26.28;70.86;102509.63;5270320;28;20024;-60
2022/08/08 11:46:56;;;;;;;2.38;1.80;;;;;;;26.13;70.20;102513.66;5252327;28;20398;-61
2022/08/08 11:49:27;;;;;;;1.55;1.52;;;;;;;25.80;72.02;102518.75;5270679;28;20028;-62
2022/08/08 11:51:59;;;;;;;4.32;2.45;;;;;;;25.89;72.56;102511.31;5270582;28;20092;-61
2022/08/08 11:54:31;;;;;;;4.00;2.67;;;;;;;25.97;72.45;102506.97;5270186;28;20472;-62
2022/08/08 11:57:16;;;;;;;3.35;1.75;;;;;;;25.63;72.63;102511.22;5269965;28;20551;-62
2022/08/08 11:59:59;;;;;;;3.58;2.28;;;;;;;25.18;73.64;102507.66;5269993;28;20451;-60
2022/08/08 12:02:30;;;;;;;1.92;1.88;;;;;;;25.28;73.94;102504.63;5252305;28;20032;-59
2022/08/08 12:05:09;;;;;;;1.75;1.65;;;;;;;25.43;74.26;102495.09;5269970;28;20061;-60
2022/08/08 12:07:52;;;;;;;1.92;1.83;;;;;;;25.38;72.48;102509.91;5269865;28;20425;-60